createdAt,value
2018-04-26T00:00:44.697Z,14.10
2018-04-26T00:03:13.053Z,14.10
2018-04-26T00:05:41.119Z,14.10
2018-04-26T00:08:09.185Z,14.10
2018-04-26T00:10:38.059Z,14.00
2018-04-26T00:13:06.114Z,14.00
2018-04-26T00:15:34.198Z,14.00
2018-04-26T00:18:02.791Z,14.10
2018-04-26T00:20:30.780Z,14.00
2018-04-26T00:22:58.846Z,14.00
2018-04-26T00:25:27.270Z,14.00
2018-04-26T00:27:56.096Z,14.00
2018-04-26T00:30:24.174Z,14.00
2018-04-26T00:32:52.370Z,14.00
2018-04-26T00:35:20.430Z,14.00
2018-04-26T00:37:48.491Z,14.10
2018-04-26T00:40:16.957Z,14.10
2018-04-26T00:42:44.946Z,14.20
2018-04-26T00:45:13.019Z,14.10
2018-04-26T00:47:41.422Z,14.20
2018-04-26T00:50:09.486Z,14.20
2018-04-26T00:52:37.538Z,14.10
2018-04-26T00:55:05.966Z,14.10
2018-04-26T00:57:34.790Z,14.20
2018-04-26T01:00:02.854Z,14.20
2018-04-26T01:02:31.413Z,14.10
2018-04-26T01:05:00.233Z,14.20
2018-04-26T01:07:28.294Z,14.20
2018-04-26T01:09:56.547Z,14.30
2018-04-26T01:12:26.001Z,14.20
2018-04-26T01:14:54.053Z,14.20
2018-04-26T01:17:22.584Z,14.30
2018-04-26T01:19:50.645Z,14.30
2018-04-26T01:22:18.709Z,14.40
2018-04-26T01:24:47.177Z,14.40
2018-04-26T01:27:15.209Z,14.40
2018-04-26T01:29:43.266Z,14.40
2018-04-26T01:32:12.545Z,14.40
2018-04-26T01:34:40.612Z,14.40
2018-04-26T01:37:20.556Z,14.40
2018-04-26T01:39:49.037Z,14.30
2018-04-26T01:42:17.098Z,14.30
2018-04-26T01:44:45.169Z,14.40
2018-04-26T01:47:13.558Z,14.40
2018-04-26T01:49:42.893Z,14.40
2018-04-26T01:52:11.727Z,14.50
2018-04-26T01:54:39.917Z,14.50
2018-04-26T01:57:07.988Z,14.40
2018-04-26T01:59:36.040Z,14.30
2018-04-26T02:02:04.453Z,14.30
2018-04-26T02:04:32.513Z,14.10
2018-04-26T02:07:00.581Z,14.00
2018-04-26T02:09:28.975Z,13.90
2018-04-26T02:11:57.032Z,13.70
2018-04-26T02:14:25.610Z,13.70
2018-04-26T02:16:54.113Z,13.50
2018-04-26T02:19:22.169Z,13.40
2018-04-26T02:21:50.238Z,13.30
2018-04-26T02:24:18.654Z,13.30
2018-04-26T02:26:47.483Z,13.10
2018-04-26T02:29:15.821Z,13.00
2018-04-26T02:31:43.903Z,13.00
2018-04-26T02:34:11.965Z,12.90
2018-04-26T02:36:40.513Z,12.80
2018-04-26T02:39:08.585Z,12.80
2018-04-26T02:41:36.655Z,12.70
2018-04-26T02:44:05.346Z,12.70
2018-04-26T02:46:33.414Z,12.70
2018-04-26T02:49:01.512Z,12.60
2018-04-26T02:51:30.796Z,12.50
2018-04-26T02:53:58.846Z,12.50
2018-04-26T02:56:26.937Z,12.40
2018-04-26T02:58:55.295Z,12.30
2018-04-26T03:01:23.368Z,12.30
2018-04-26T03:03:51.442Z,12.20
2018-04-26T03:06:19.809Z,12.20
2018-04-26T03:08:47.874Z,12.20
2018-04-26T03:11:15.946Z,12.20
2018-04-26T03:13:44.337Z,12.20
2018-04-26T03:16:12.881Z,12.20
2018-04-26T03:18:40.951Z,12.20
2018-04-26T03:21:09.465Z,12.30
2018-04-26T03:23:37.521Z,12.20
2018-04-26T03:26:05.613Z,12.20
2018-04-26T03:28:34.025Z,12.10
2018-04-26T03:31:02.963Z,12.10
2018-04-26T03:33:30.921Z,12.10
2018-04-26T03:35:59.434Z,12.10
2018-04-26T03:38:27.487Z,12.00
2018-04-26T03:40:55.562Z,12.00
2018-04-26T03:43:23.764Z,11.90
2018-04-26T03:45:51.825Z,11.90
2018-04-26T03:48:19.881Z,11.90
2018-04-26T03:50:48.322Z,11.90
2018-04-26T03:53:16.381Z,12.00
2018-04-26T03:55:45.201Z,11.90
2018-04-26T03:58:13.622Z,11.90
2018-04-26T04:00:53.414Z,11.90
2018-04-26T04:03:46.049Z,11.90
2018-04-26T04:06:14.927Z,11.80
2018-04-26T04:08:43.389Z,11.80
2018-04-26T04:11:11.491Z,11.80
2018-04-26T04:13:40.318Z,11.70
2018-04-26T04:16:08.517Z,11.70
2018-04-26T04:18:37.061Z,11.80
2018-04-26T04:21:05.117Z,11.70
2018-04-26T04:23:33.670Z,11.80
2018-04-26T04:26:02.512Z,11.80
2018-04-26T04:28:30.596Z,11.80
2018-04-26T04:30:59.729Z,11.70
2018-04-26T04:33:27.788Z,11.70
2018-04-26T04:35:55.880Z,11.70
2018-04-26T04:38:25.150Z,11.80
2018-04-26T04:40:53.214Z,11.80
2018-04-26T04:43:21.298Z,11.60
2018-04-26T04:45:49.664Z,11.70
2018-04-26T04:48:17.720Z,11.80
2018-04-26T04:50:45.810Z,11.70
2018-04-26T04:53:14.205Z,11.70
2018-04-26T04:55:42.282Z,11.80
2018-04-26T04:58:11.163Z,11.80
2018-04-26T05:00:39.352Z,11.80
2018-04-26T05:03:08.188Z,11.70
2018-04-26T05:05:36.262Z,11.70
2018-04-26T05:08:04.780Z,11.70
2018-04-26T05:10:32.836Z,11.70
2018-04-26T05:13:00.904Z,11.70
2018-04-26T05:15:29.337Z,11.60
2018-04-26T05:17:57.392Z,11.70
2018-04-26T05:20:27.017Z,11.60
2018-04-26T05:22:55.988Z,11.60
2018-04-26T05:25:24.817Z,11.50
2018-04-26T05:27:52.879Z,11.50
2018-04-26T05:30:21.458Z,11.60
2018-04-26T05:32:49.527Z,11.70
2018-04-26T05:35:17.593Z,11.70
2018-04-26T05:37:45.937Z,11.70
2018-04-26T05:40:14.047Z,11.90
2018-04-26T05:42:42.101Z,11.80
2018-04-26T05:45:11.379Z,12.00
2018-04-26T05:47:39.429Z,11.90
2018-04-26T05:50:07.497Z,11.90
2018-04-26T05:52:35.613Z,11.90
2018-04-26T05:55:04.439Z,11.90
2018-04-26T05:57:32.547Z,11.90
2018-04-26T06:00:01.024Z,11.80
2018-04-26T06:02:29.076Z,11.80
2018-04-26T06:04:57.160Z,11.90
2018-04-26T06:07:25.531Z,11.90
2018-04-26T06:09:53.608Z,11.90
2018-04-26T06:12:21.699Z,12.00
2018-04-26T06:14:50.143Z,12.10
2018-04-26T06:17:18.202Z,12.00
2018-04-26T06:19:46.289Z,12.00
2018-04-26T06:22:15.059Z,12.10
2018-04-26T06:24:43.105Z,12.20
2018-04-26T06:27:11.184Z,12.20
2018-04-26T06:29:39.708Z,12.20
2018-04-26T06:32:07.768Z,12.10
2018-04-26T06:34:35.862Z,12.10
2018-04-26T06:37:04.282Z,12.20
2018-04-26T06:39:33.119Z,12.30
2018-04-26T06:42:01.190Z,12.30
2018-04-26T06:44:29.680Z,12.20
2018-04-26T06:46:57.741Z,12.20
2018-04-26T06:49:25.827Z,12.20
2018-04-26T06:51:54.203Z,12.10
2018-04-26T06:54:22.259Z,12.10
2018-04-26T06:56:50.329Z,12.30
2018-04-26T06:59:18.719Z,12.40
2018-04-26T07:01:46.781Z,12.30
2018-04-26T07:04:14.850Z,12.30
2018-04-26T07:06:43.242Z,12.20
2018-04-26T07:09:11.306Z,12.40
2018-04-26T07:11:39.467Z,12.40
2018-04-26T07:14:08.677Z,12.50
2018-04-26T07:16:36.739Z,12.40
2018-04-26T07:19:04.805Z,12.40
2018-04-26T07:21:33.050Z,12.50
2018-04-26T07:24:01.748Z,12.50
2018-04-26T07:26:29.832Z,12.50
2018-04-26T07:28:57.990Z,12.60
2018-04-26T07:31:26.064Z,12.80
2018-04-26T07:33:54.146Z,12.70
2018-04-26T07:36:22.548Z,12.90
2018-04-26T07:38:50.598Z,12.90
2018-04-26T07:41:18.672Z,13.00
2018-04-26T07:43:47.070Z,13.00
2018-04-26T07:46:15.136Z,12.80
2018-04-26T07:48:43.208Z,12.90
2018-04-26T07:51:11.594Z,12.90
2018-04-26T07:53:39.679Z,12.90
2018-04-26T07:56:07.734Z,12.80
2018-04-26T07:58:36.115Z,12.80
2018-04-26T08:01:04.788Z,12.70
2018-04-26T08:03:32.841Z,12.80
2018-04-26T08:06:00.897Z,13.00
2018-04-26T08:08:29.645Z,12.90
2018-04-26T08:10:57.701Z,13.00
2018-04-26T08:13:25.773Z,12.90
2018-04-26T08:15:53.963Z,13.00
2018-04-26T08:18:22.020Z,13.20
2018-04-26T08:20:50.077Z,13.20
2018-04-26T08:23:18.501Z,13.10
2018-04-26T08:25:47.215Z,13.10
2018-04-26T08:28:15.273Z,12.90
2018-04-26T08:30:43.492Z,13.10
2018-04-26T08:33:11.551Z,13.20
2018-04-26T08:35:39.645Z,13.20
2018-04-26T08:38:08.320Z,13.00
2018-04-26T08:40:36.457Z,12.90
2018-04-26T08:43:04.543Z,12.90
2018-04-26T08:45:32.943Z,12.70
2018-04-26T08:48:00.994Z,12.50
2018-04-26T08:50:29.060Z,12.50
2018-04-26T08:52:57.161Z,12.60
2018-04-26T08:55:25.216Z,12.80
2018-04-26T08:57:53.294Z,12.80
2018-04-26T09:00:21.884Z,13.00
2018-04-26T09:02:49.953Z,13.10
2018-04-26T09:05:18.032Z,12.90
2018-04-26T09:07:46.448Z,12.80
2018-04-26T09:10:14.502Z,12.80
2018-04-26T09:12:43.343Z,12.80
2018-04-26T09:15:11.837Z,12.70
2018-04-26T09:17:39.945Z,12.70
2018-04-26T09:20:08.773Z,12.80
2018-04-26T09:22:36.969Z,12.80
2018-04-26T09:25:05.050Z,12.80
2018-04-26T09:27:33.323Z,12.90
2018-04-26T09:30:01.815Z,12.70
2018-04-26T09:32:29.882Z,12.70
2018-04-26T09:34:57.945Z,12.60
2018-04-26T09:37:27.237Z,12.70
2018-04-26T09:39:55.342Z,12.60
2018-04-26T09:42:24.173Z,12.70
2018-04-26T09:44:52.688Z,12.70
2018-04-26T09:47:20.778Z,12.80
2018-04-26T09:49:48.846Z,12.60
2018-04-26T09:52:17.510Z,12.70
2018-04-26T09:54:45.604Z,12.70
2018-04-26T09:57:13.676Z,12.70
2018-04-26T09:59:42.053Z,12.80
2018-04-26T10:02:10.126Z,12.70
2018-04-26T10:04:43.859Z,12.70
2018-04-26T10:07:12.518Z,12.60
2018-04-26T10:09:41.344Z,12.40
2018-04-26T10:12:09.532Z,12.40
2018-04-26T10:14:37.867Z,12.50
2018-04-26T10:17:06.693Z,12.40
2018-04-26T10:19:34.775Z,12.50
2018-04-26T10:22:03.293Z,12.50
2018-04-26T10:24:31.403Z,12.50
2018-04-26T10:26:59.457Z,12.50
2018-04-26T10:29:28.531Z,12.80
2018-04-26T10:31:57.112Z,12.90
2018-04-26T10:34:25.171Z,13.10
2018-04-26T10:36:53.232Z,13.10
2018-04-26T10:39:21.944Z,13.20
2018-04-26T10:41:50.007Z,13.00
2018-04-26T10:44:18.090Z,13.10
2018-04-26T10:46:46.248Z,13.20
2018-04-26T10:49:14.310Z,13.20
2018-04-26T10:51:42.366Z,13.20
2018-04-26T10:54:11.002Z,13.40
2018-04-26T10:56:39.830Z,13.40
2018-04-26T10:59:07.901Z,13.40
2018-04-26T11:01:36.421Z,13.60
2018-04-26T11:04:04.485Z,13.70
2018-04-26T11:06:32.548Z,13.30
2018-04-26T11:09:01.246Z,13.30
2018-04-26T11:11:29.379Z,13.20
2018-04-26T11:13:57.410Z,13.40
2018-04-26T11:16:26.430Z,13.20
2018-04-26T11:18:54.480Z,13.20
2018-04-26T11:21:22.659Z,13.20
2018-04-26T11:23:50.897Z,13.00
2018-04-26T11:26:18.946Z,13.00
2018-04-26T11:28:47.317Z,13.20
2018-04-26T11:31:15.901Z,13.50
2018-04-26T11:33:43.968Z,13.70
2018-04-26T11:36:12.087Z,13.60
2018-04-26T11:38:40.539Z,14.10
2018-04-26T11:41:08.602Z,14.40
2018-04-26T11:43:36.669Z,14.70
2018-04-26T11:46:05.061Z,14.80
2018-04-26T11:48:33.123Z,15.10
2018-04-26T11:51:01.190Z,15.40
2018-04-26T11:53:29.612Z,15.20
2018-04-26T11:55:57.682Z,15.10
2018-04-26T11:58:26.514Z,15.40
2018-04-26T12:00:55.049Z,15.40
2018-04-26T12:03:23.118Z,15.20
2018-04-26T12:05:51.429Z,15.40
2018-04-26T12:08:19.942Z,15.20
2018-04-26T12:10:48.018Z,15.10
2018-04-26T12:13:16.174Z,15.20
2018-04-26T12:15:44.465Z,14.80
2018-04-26T12:18:12.521Z,14.60
2018-04-26T12:20:40.585Z,14.50
2018-04-26T12:23:08.897Z,14.50
2018-04-26T12:25:37.015Z,14.60
2018-04-26T12:28:05.023Z,14.70
2018-04-26T12:30:33.437Z,14.70
2018-04-26T12:33:01.851Z,14.70
2018-04-26T12:35:30.651Z,14.30
2018-04-26T12:37:59.206Z,14.20
2018-04-26T12:40:28.035Z,14.30
2018-04-26T12:42:56.091Z,14.20
2018-04-26T12:45:24.613Z,14.20
2018-04-26T12:47:52.673Z,14.10
2018-04-26T12:50:20.752Z,14.30
2018-04-26T12:52:49.155Z,14.30
2018-04-26T12:55:17.213Z,14.40
2018-04-26T12:57:45.260Z,14.50
2018-04-26T13:00:13.737Z,14.80
2018-04-26T13:02:41.804Z,14.70
2018-04-26T13:05:09.888Z,14.70
2018-04-26T13:07:38.187Z,14.90
2018-04-26T13:10:06.244Z,14.60
2018-04-26T13:12:34.302Z,14.70
2018-04-26T13:15:02.762Z,14.80
2018-04-26T13:17:30.849Z,14.90
2018-04-26T13:19:58.888Z,14.90
2018-04-26T13:22:27.533Z,14.70
2018-04-26T13:24:55.586Z,14.60
2018-04-26T13:27:23.706Z,14.60
2018-04-26T13:29:52.100Z,14.70
2018-04-26T13:32:20.901Z,14.80
2018-04-26T13:34:49.096Z,14.80
2018-04-26T13:37:17.485Z,14.70
2018-04-26T13:39:45.575Z,14.40
2018-04-26T13:42:13.619Z,14.40
2018-04-26T13:44:42.305Z,14.60
2018-04-26T13:47:10.370Z,14.70
2018-04-26T13:49:38.432Z,14.70
2018-04-26T13:52:06.703Z,14.80
2018-04-26T13:54:34.730Z,14.80
2018-04-26T13:57:03.590Z,15.10
2018-04-26T13:59:32.266Z,15.10
2018-04-26T14:02:00.328Z,15.30
2018-04-26T14:04:28.392Z,15.70
2018-04-26T14:06:56.594Z,15.70
2018-04-26T14:09:24.698Z,15.90
2018-04-26T14:11:53.519Z,15.90
2018-04-26T14:14:21.756Z,15.90
2018-04-26T14:16:49.844Z,15.90
2018-04-26T14:19:17.914Z,15.80
2018-04-26T14:21:46.274Z,15.90
2018-04-26T14:24:14.368Z,15.90
2018-04-26T14:26:42.432Z,15.80
2018-04-26T14:29:10.965Z,15.60
2018-04-26T14:31:39.055Z,15.50
2018-04-26T14:34:07.155Z,15.40
2018-04-26T14:36:35.961Z,15.30
2018-04-26T14:39:04.067Z,15.30
2018-04-26T14:41:32.123Z,15.20
2018-04-26T14:44:00.311Z,15.10
2018-04-26T14:46:28.375Z,15.00
2018-04-26T14:48:56.439Z,15.20
2018-04-26T14:51:24.708Z,15.20
2018-04-26T14:53:52.765Z,15.40
2018-04-26T14:56:20.833Z,15.50
2018-04-26T14:58:49.357Z,15.60
2018-04-26T15:01:17.444Z,15.70
2018-04-26T15:03:45.507Z,15.80
2018-04-26T15:06:13.883Z,15.90
2018-04-26T15:08:41.977Z,15.70
2018-04-26T15:11:10.807Z,15.80
2018-04-26T15:13:39.007Z,15.80
2018-04-26T15:16:07.081Z,15.60
2018-04-26T15:18:35.469Z,15.50
2018-04-26T15:21:03.544Z,15.60
2018-04-26T15:23:31.640Z,15.30
2018-04-26T15:26:00.633Z,15.90
2018-04-26T15:28:29.463Z,15.90
2018-04-26T15:30:57.537Z,15.90
2018-04-26T15:33:25.768Z,16.10
2018-04-26T15:35:54.591Z,16.00
2018-04-26T15:38:23.101Z,15.90
2018-04-26T15:40:51.485Z,15.90
2018-04-26T15:43:19.542Z,15.80
2018-04-26T15:45:47.625Z,15.70
2018-04-26T15:48:16.309Z,15.70
2018-04-26T15:50:59.173Z,15.90
2018-04-26T15:53:38.961Z,16.00
2018-04-26T15:56:30.785Z,16.10
2018-04-26T15:59:11.490Z,15.60
2018-04-26T16:05:32.676Z,15.90
2018-04-26T16:08:18.181Z,15.90
2018-04-26T16:11:03.682Z,16.00
2018-04-26T16:13:49.353Z,16.00
2018-04-26T16:16:35.018Z,15.80
2018-04-26T16:19:24.108Z,15.60
2018-04-26T16:22:09.780Z,15.60
2018-04-26T16:24:53.721Z,15.50
2018-04-26T16:27:39.420Z,15.30
2018-04-26T16:30:19.631Z,15.10
2018-04-26T16:33:05.541Z,14.90
2018-04-26T16:35:45.313Z,14.80
2018-04-26T16:38:25.462Z,14.80
2018-04-26T16:40:54.050Z,15.00
2018-04-26T16:43:22.120Z,15.00
2018-04-26T16:45:50.196Z,14.80
2018-04-26T16:48:18.301Z,14.70
2018-04-26T16:50:46.378Z,14.70
2018-04-26T16:53:14.440Z,14.70
2018-04-26T16:55:42.767Z,14.60
2018-04-26T16:58:10.828Z,14.70
2018-04-26T17:00:38.905Z,14.70
2018-04-26T17:03:07.285Z,14.80
2018-04-26T17:05:35.372Z,14.90
2018-04-26T17:08:03.426Z,15.00
2018-04-26T17:10:31.810Z,15.00
2018-04-26T17:12:59.901Z,14.90
2018-04-26T17:15:28.729Z,14.60
2018-04-26T17:17:57.118Z,14.60
2018-04-26T17:20:25.210Z,14.70
2018-04-26T17:22:53.268Z,14.60
2018-04-26T17:25:21.766Z,14.50
2018-04-26T17:27:49.848Z,14.50
2018-04-26T17:30:17.894Z,14.50
2018-04-26T17:32:46.293Z,14.50
2018-04-26T17:35:14.357Z,14.30
2018-04-26T17:37:42.413Z,14.40
2018-04-26T17:40:11.678Z,14.40
2018-04-26T17:42:39.646Z,14.50
2018-04-26T17:45:07.707Z,14.40
2018-04-26T17:47:36.258Z,14.40
2018-04-26T17:50:04.328Z,14.40
2018-04-26T17:52:32.413Z,14.40
2018-04-26T17:55:00.768Z,14.30
2018-04-26T17:57:28.829Z,14.30
2018-04-26T17:59:56.893Z,14.10
2018-04-26T18:02:25.288Z,14.10
2018-04-26T18:04:53.339Z,14.10
2018-04-26T18:07:21.407Z,14.10
2018-04-26T18:09:49.818Z,14.00
2018-04-26T18:12:17.934Z,14.00
2018-04-26T18:14:45.984Z,14.00
2018-04-26T18:17:14.328Z,14.00
2018-04-26T18:19:42.422Z,13.90
2018-04-26T18:22:10.460Z,13.80
2018-04-26T18:24:38.692Z,13.70
2018-04-26T18:27:07.539Z,13.70
2018-04-26T18:29:35.593Z,13.70
2018-04-26T18:32:04.365Z,13.60
2018-04-26T18:34:32.381Z,13.60
2018-04-26T18:37:00.441Z,13.50
2018-04-26T18:39:28.629Z,13.50
2018-04-26T18:41:57.363Z,13.40
2018-04-26T18:44:25.434Z,13.40
2018-04-26T18:46:53.649Z,13.30
2018-04-26T18:49:21.713Z,13.30
2018-04-26T18:51:49.773Z,13.20
2018-04-26T18:54:18.473Z,13.20
2018-04-26T18:56:46.569Z,13.20
2018-04-26T18:59:15.398Z,13.10
2018-04-26T19:01:43.605Z,13.10
2018-04-26T19:04:11.697Z,13.10
2018-04-26T19:06:39.763Z,13.00
2018-04-26T19:09:08.166Z,13.00
2018-04-26T19:11:36.217Z,13.00
2018-04-26T19:14:04.282Z,12.90
2018-04-26T19:16:32.647Z,12.80
2018-04-26T19:19:00.725Z,12.80
2018-04-26T19:21:28.789Z,12.70
2018-04-26T19:23:57.173Z,12.70
2018-04-26T19:26:25.276Z,12.70
2018-04-26T19:28:54.089Z,12.70
2018-04-26T19:31:22.657Z,12.70
2018-04-26T19:33:51.508Z,12.60
2018-04-26T19:36:19.630Z,12.60
2018-04-26T19:38:48.076Z,12.60
2018-04-26T19:41:16.139Z,12.40
2018-04-26T19:43:44.865Z,12.30
2018-04-26T19:46:13.812Z,12.20
2018-04-26T19:48:41.880Z,12.20
2018-04-26T19:51:09.943Z,12.10
2018-04-26T19:53:38.326Z,12.00
2018-04-26T19:56:06.394Z,12.00
2018-04-26T19:58:34.461Z,11.80
2018-04-26T20:01:02.649Z,11.70
2018-04-26T20:03:30.723Z,11.70
2018-04-26T20:05:58.779Z,11.70
2018-04-26T20:08:27.055Z,11.60
2018-04-26T20:10:55.135Z,11.50
2018-04-26T20:13:23.203Z,11.50
2018-04-26T20:15:51.889Z,11.50
2018-04-26T20:18:19.962Z,11.50
2018-04-26T20:20:48.108Z,11.40
2018-04-26T20:23:16.434Z,11.40
2018-04-26T20:25:45.265Z,11.40
2018-04-26T20:28:13.339Z,11.40
2018-04-26T20:30:41.900Z,11.30
2018-04-26T20:33:09.969Z,11.30
2018-04-26T20:35:38.027Z,11.30
2018-04-26T20:38:07.323Z,11.40
2018-04-26T20:40:36.141Z,11.50
2018-04-26T20:43:04.206Z,11.40
2018-04-26T20:45:32.637Z,11.50
2018-04-26T20:48:00.710Z,11.50
2018-04-26T20:50:28.787Z,11.50
2018-04-26T20:52:58.895Z,11.50
2018-04-26T20:55:28.003Z,11.50
2018-04-26T20:57:56.040Z,11.60
2018-04-26T21:00:24.266Z,11.60
2018-04-26T21:02:53.099Z,11.60
2018-04-26T21:05:21.173Z,11.60
2018-04-26T21:07:49.680Z,11.60
2018-04-26T21:10:17.743Z,11.60
2018-04-26T21:12:45.798Z,11.60
2018-04-26T21:15:14.776Z,11.60
2018-04-26T21:17:42.844Z,11.60
2018-04-26T21:20:10.956Z,11.60
2018-04-26T21:22:39.334Z,11.60
2018-04-26T21:25:07.391Z,11.60
2018-04-26T21:27:35.495Z,11.50
2018-04-26T21:30:03.924Z,11.50
2018-04-26T21:32:31.980Z,11.50
2018-04-26T21:35:00.077Z,11.50
2018-04-26T21:37:28.679Z,11.60
2018-04-26T21:39:56.742Z,11.50
2018-04-26T21:42:24.841Z,11.50
2018-04-26T21:44:53.513Z,11.50
2018-04-26T21:47:21.801Z,11.40
2018-04-26T21:49:55.423Z,11.40
2018-04-26T21:52:29.526Z,11.50
2018-04-26T21:55:03.258Z,11.50
2018-04-26T21:57:37.390Z,11.50
2018-04-26T22:00:11.157Z,11.50
2018-04-26T22:02:39.917Z,11.50
2018-04-26T22:05:13.669Z,11.50
2018-04-26T22:07:42.081Z,11.60
2018-04-26T22:10:10.141Z,11.60
2018-04-26T22:12:38.210Z,11.70
2018-04-26T22:15:06.663Z,11.70
2018-04-26T22:17:34.717Z,11.80
2018-04-26T22:20:03.553Z,11.80
2018-04-26T22:22:31.824Z,11.80
2018-04-26T22:24:59.891Z,11.60
2018-04-26T22:27:27.945Z,11.60
2018-04-26T22:29:56.607Z,11.70
2018-04-26T22:32:25.428Z,11.70
2018-04-26T22:34:53.490Z,11.70
2018-04-26T22:37:22.014Z,11.70
2018-04-26T22:39:50.078Z,11.60
2018-04-26T22:42:18.167Z,11.70
2018-04-26T22:44:46.852Z,11.70
2018-04-26T22:47:14.911Z,11.80
2018-04-26T22:49:43.725Z,11.80
2018-04-26T22:52:12.289Z,11.90
2018-04-26T22:54:40.361Z,11.90
2018-04-26T22:57:08.423Z,11.80
2018-04-26T22:59:36.806Z,11.80
2018-04-26T23:02:04.869Z,11.80
2018-04-26T23:04:32.937Z,11.90
2018-04-26T23:07:01.317Z,11.90
2018-04-26T23:09:29.385Z,11.90
2018-04-26T23:11:57.467Z,11.90
2018-04-26T23:14:25.860Z,11.90
2018-04-26T23:16:53.911Z,11.90
2018-04-26T23:19:22.018Z,11.90
2018-04-26T23:21:50.371Z,11.90
2018-04-26T23:24:18.427Z,11.90
2018-04-26T23:26:46.575Z,11.90
2018-04-26T23:29:14.881Z,11.90
2018-04-26T23:31:42.941Z,11.90
2018-04-26T23:34:11.011Z,11.80
2018-04-26T23:36:39.411Z,11.80
2018-04-26T23:39:07.469Z,11.60
2018-04-26T23:41:36.306Z,11.60
2018-04-26T23:44:04.864Z,11.60
2018-04-26T23:46:32.954Z,11.60
2018-04-26T23:49:01.781Z,11.50
2018-04-26T23:51:30.770Z,11.50
2018-04-26T23:53:58.836Z,11.50
2018-04-26T23:56:26.899Z,11.50
2018-04-26T23:58:55.420Z,11.50
